createdAt,value
2018-06-27T00:02:07.845Z,15.30
2018-06-27T00:04:37.037Z,15.20
2018-06-27T00:07:06.465Z,15.20
2018-06-27T00:09:35.613Z,15.00
2018-06-27T00:12:04.817Z,14.90
2018-06-27T00:14:34.876Z,14.90
2018-06-27T00:17:04.046Z,14.80
2018-06-27T00:19:33.230Z,14.80
2018-06-27T00:22:02.617Z,14.70
2018-06-27T00:24:31.785Z,14.70
2018-06-27T00:27:03.179Z,14.70
2018-06-27T00:29:32.335Z,14.70
2018-06-27T00:32:01.433Z,14.60
2018-06-27T00:34:30.929Z,14.70
2018-06-27T00:37:00.141Z,14.60
2018-06-27T00:39:29.537Z,14.60
2018-06-27T00:41:59.470Z,14.60
2018-06-27T00:44:28.628Z,14.60
2018-06-27T00:46:57.817Z,14.50
2018-06-27T00:49:27.020Z,14.50
2018-06-27T00:51:56.149Z,14.60
2018-06-27T00:54:25.336Z,14.50
2018-06-27T00:56:55.251Z,14.50
2018-06-27T00:59:24.392Z,14.40
2018-06-27T01:01:53.516Z,14.40
2018-06-27T01:04:22.685Z,14.30
2018-06-27T01:06:51.829Z,14.30
2018-06-27T01:09:21.028Z,14.30
2018-06-27T01:11:50.441Z,14.30
2018-06-27T01:14:19.637Z,14.20
2018-06-27T01:16:48.740Z,14.20
2018-06-27T01:19:18.105Z,14.10
2018-06-27T01:21:48.507Z,14.00
2018-06-27T01:24:17.776Z,13.90
2018-06-27T01:26:47.177Z,13.90
2018-06-27T01:29:16.313Z,13.70
2018-06-27T01:31:45.461Z,13.70
2018-06-27T01:34:14.648Z,13.70
2018-06-27T01:36:43.805Z,13.70
2018-06-27T01:39:12.955Z,13.70
2018-06-27T01:41:42.224Z,13.60
2018-06-27T01:44:11.372Z,13.60
2018-06-27T01:46:40.645Z,13.60
2018-06-27T01:49:09.808Z,13.60
2018-06-27T01:51:38.946Z,13.50
2018-06-27T01:54:08.048Z,13.50
2018-06-27T01:56:37.460Z,13.40
2018-06-27T01:59:06.897Z,13.40
2018-06-27T02:01:36.038Z,13.40
2018-06-27T02:04:05.525Z,13.30
2018-06-27T02:06:34.624Z,13.30
2018-06-27T02:09:03.815Z,13.20
2018-06-27T02:11:33.196Z,13.20
2018-06-27T02:14:02.333Z,13.20
2018-06-27T02:16:31.456Z,13.20
2018-06-27T02:19:01.014Z,13.20
2018-06-27T02:21:30.198Z,13.20
2018-06-27T02:23:59.397Z,13.20
2018-06-27T02:26:28.657Z,13.20
2018-06-27T02:28:57.828Z,13.20
2018-06-27T02:31:27.025Z,13.10
2018-06-27T02:33:56.456Z,13.00
2018-06-27T02:36:25.757Z,13.00
2018-06-27T02:38:55.197Z,13.00
2018-06-27T02:41:24.629Z,12.90
2018-06-27T02:43:53.740Z,12.90
2018-06-27T02:46:22.909Z,12.90
2018-06-27T02:48:52.541Z,12.90
2018-06-27T02:51:21.697Z,12.90
2018-06-27T02:53:50.807Z,12.80
2018-06-27T02:56:19.945Z,12.90
2018-06-27T02:58:49.088Z,12.80
2018-06-27T03:01:18.577Z,12.80
2018-06-27T03:03:47.662Z,12.80
2018-06-27T03:06:16.846Z,12.70
2018-06-27T03:08:45.979Z,12.70
2018-06-27T03:11:15.225Z,12.70
2018-06-27T03:13:44.449Z,12.70
2018-06-27T03:16:13.576Z,12.70
2018-06-27T03:18:52.152Z,12.70
2018-06-27T03:21:21.477Z,12.60
2018-06-27T03:23:50.800Z,12.60
2018-06-27T03:26:20.390Z,12.60
2018-06-27T03:28:49.499Z,12.60
2018-06-27T03:31:18.960Z,12.60
2018-06-27T03:33:48.298Z,12.60
2018-06-27T03:36:17.477Z,12.70
2018-06-27T03:38:46.621Z,12.60
2018-06-27T03:41:16.116Z,12.60
2018-06-27T03:43:45.321Z,12.70
2018-06-27T03:46:14.485Z,12.70
2018-06-27T03:48:44.242Z,12.70
2018-06-27T03:51:13.424Z,12.70
2018-06-27T03:53:46.737Z,12.70
2018-06-27T03:56:15.867Z,12.70
2018-06-27T03:58:45.016Z,12.70
2018-06-27T04:01:14.870Z,12.70
2018-06-27T04:03:44.037Z,12.70
2018-06-27T04:06:13.172Z,12.70
2018-06-27T04:08:42.392Z,12.80
2018-06-27T04:11:11.528Z,12.80
2018-06-27T04:13:40.909Z,12.90
2018-06-27T04:16:10.465Z,13.00
2018-06-27T04:18:39.581Z,13.00
2018-06-27T04:21:08.763Z,13.10
2018-06-27T04:23:38.316Z,13.20
2018-06-27T04:26:07.521Z,13.20
2018-06-27T04:28:36.612Z,13.30
2018-06-27T04:31:05.833Z,13.40
2018-06-27T04:33:34.976Z,13.40
2018-06-27T04:36:04.129Z,13.50
2018-06-27T04:38:33.626Z,13.60
2018-06-27T04:41:02.764Z,13.70
2018-06-27T04:43:31.932Z,13.80
2018-06-27T04:46:01.206Z,13.90
2018-06-27T04:48:30.353Z,14.00
2018-06-27T04:50:59.629Z,14.10
2018-06-27T04:53:29.064Z,14.30
2018-06-27T04:55:58.200Z,14.40
2018-06-27T04:58:27.320Z,14.50
2018-06-27T05:00:56.713Z,14.60
2018-06-27T05:03:26.200Z,14.60
2018-06-27T05:05:55.313Z,14.70
2018-06-27T05:08:25.025Z,14.80
2018-06-27T05:10:54.216Z,14.90
2018-06-27T05:13:23.348Z,15.00
2018-06-27T05:15:52.736Z,15.10
2018-06-27T05:18:21.942Z,15.30
2018-06-27T05:20:51.058Z,15.40
2018-06-27T05:23:20.457Z,15.50
2018-06-27T05:25:49.572Z,15.50
2018-06-27T05:28:18.816Z,15.70
2018-06-27T05:30:48.077Z,15.60
2018-06-27T05:33:17.242Z,15.70
2018-06-27T05:35:46.448Z,15.90
2018-06-27T05:38:15.605Z,15.90
2018-06-27T05:40:44.832Z,15.90
2018-06-27T05:43:13.987Z,15.90
2018-06-27T05:45:43.420Z,15.90
2018-06-27T05:48:12.520Z,15.80
2018-06-27T05:50:41.712Z,15.90
2018-06-27T05:53:11.277Z,16.00
2018-06-27T05:55:40.521Z,16.20
2018-06-27T05:58:09.729Z,16.30
2018-06-27T06:00:39.036Z,16.30
2018-06-27T06:03:08.141Z,16.40
2018-06-27T06:05:37.637Z,16.50
2018-06-27T06:08:07.128Z,16.60
2018-06-27T06:10:36.317Z,16.60
2018-06-27T06:13:05.558Z,16.70
2018-06-27T06:15:34.964Z,16.80
2018-06-27T06:18:04.176Z,17.00
2018-06-27T06:20:33.350Z,17.10
2018-06-27T06:23:02.553Z,17.30
2018-06-27T06:25:32.425Z,17.40
2018-06-27T06:28:02.484Z,17.20
2018-06-27T06:30:31.632Z,17.40
2018-06-27T06:33:00.780Z,17.50
2018-06-27T06:35:30.338Z,18.00
2018-06-27T06:37:59.528Z,18.40
2018-06-27T06:40:28.684Z,18.50
2018-06-27T06:42:58.156Z,18.20
2018-06-27T06:45:27.294Z,18.40
2018-06-27T06:47:56.597Z,18.40
2018-06-27T06:50:26.138Z,18.50
2018-06-27T06:52:56.234Z,18.90
2018-06-27T06:55:25.381Z,18.80
2018-06-27T06:57:54.591Z,18.80
2018-06-27T07:00:23.924Z,18.60
2018-06-27T07:02:53.076Z,18.80
2018-06-27T07:05:22.390Z,18.80
2018-06-27T07:07:51.836Z,19.10
2018-06-27T07:10:20.972Z,19.20
2018-06-27T07:12:50.229Z,19.50
2018-06-27T07:15:19.692Z,19.40
2018-06-27T07:17:49.096Z,19.70
2018-06-27T07:20:18.177Z,19.70
2018-06-27T07:22:47.609Z,20.00
2018-06-27T07:25:16.825Z,20.50
2018-06-27T07:27:45.970Z,21.10
2018-06-27T07:30:15.705Z,21.50
2018-06-27T07:32:44.880Z,21.80
2018-06-27T07:35:14.026Z,21.50
2018-06-27T07:37:43.465Z,21.40
2018-06-27T07:40:12.601Z,22.20
2018-06-27T07:42:42.760Z,23.50
2018-06-27T07:45:12.460Z,24.70
2018-06-27T07:47:42.438Z,24.50
2018-06-27T07:50:12.569Z,25.90
2018-06-27T07:52:41.693Z,27.50
2018-06-27T07:55:10.913Z,28.70
2018-06-27T07:57:40.598Z,27.30
2018-06-27T08:00:10.953Z,27.00
2018-06-27T08:02:40.989Z,25.30
2018-06-27T08:05:11.255Z,25.60
2018-06-27T08:07:40.413Z,25.80
2018-06-27T08:10:10.445Z,24.90
2018-06-27T08:12:41.253Z,26.40
2018-06-27T08:15:10.681Z,27.90
2018-06-27T08:17:41.576Z,27.90
2018-06-27T08:20:10.617Z,29.50
2018-06-27T08:22:40.062Z,31.70
2018-06-27T08:25:10.058Z,32.30
2018-06-27T08:27:40.823Z,32.70
2018-06-27T08:30:12.308Z,33.10
2018-06-27T08:32:42.362Z,33.70
2018-06-27T08:35:12.125Z,32.70
2018-06-27T08:37:42.415Z,31.60
2018-06-27T08:40:12.593Z,31.00
2018-06-27T08:42:43.134Z,27.70
2018-06-27T08:45:16.374Z,29.10
2018-06-27T08:47:48.889Z,30.60
2018-06-27T08:50:20.798Z,31.40
2018-06-27T08:52:50.953Z,30.70
2018-06-27T08:55:20.306Z,29.40
2018-06-27T08:57:49.613Z,30.40
2018-06-27T09:00:19.234Z,29.40
2018-06-27T09:02:48.625Z,28.00
2018-06-27T09:05:19.347Z,28.30
2018-06-27T09:07:49.877Z,28.20
2018-06-27T09:10:21.129Z,27.80
2018-06-27T09:12:53.079Z,29.00
2018-06-27T09:15:23.375Z,30.00
2018-06-27T09:17:53.176Z,31.30
2018-06-27T09:20:24.938Z,28.40
2018-06-27T09:22:57.486Z,28.40
2018-06-27T09:25:27.443Z,28.60
2018-06-27T09:29:26.213Z,30.40
2018-06-27T09:31:56.865Z,29.10
2018-06-27T09:34:28.265Z,29.10
2018-06-27T09:36:57.849Z,29.30
2018-06-27T09:39:27.937Z,29.00
2018-06-27T09:41:59.230Z,28.30
2018-06-27T09:44:29.699Z,29.40
2018-06-27T09:47:00.555Z,30.80
2018-06-27T09:49:33.456Z,29.50
2018-06-27T09:52:04.601Z,28.50
2018-06-27T09:54:38.788Z,29.10
2018-06-27T09:57:09.667Z,26.90
2018-06-27T09:59:39.802Z,26.90
2018-06-27T10:02:13.883Z,28.10
2018-06-27T10:04:44.541Z,28.70
2018-06-27T10:07:13.925Z,29.80
2018-06-27T10:09:44.277Z,31.00
2018-06-27T10:12:16.604Z,30.10
2018-06-27T10:14:47.953Z,28.10
2018-06-27T10:17:20.594Z,28.20
2018-06-27T10:19:50.230Z,29.00
2018-06-27T10:22:20.267Z,28.20
2018-06-27T10:24:49.567Z,27.80
2018-06-27T10:27:18.760Z,29.50
2018-06-27T10:29:48.145Z,29.20
2018-06-27T10:32:23.754Z,29.20
2018-06-27T10:34:54.174Z,29.90
2018-06-27T10:37:25.277Z,30.80
2018-06-27T10:39:54.705Z,30.50
2018-06-27T10:42:24.583Z,31.10
2018-06-27T10:44:56.382Z,28.80
2018-06-27T10:47:27.647Z,27.40
2018-06-27T10:49:58.541Z,27.40
2018-06-27T10:52:30.352Z,28.00
2018-06-27T10:55:00.261Z,29.50
2018-06-27T10:57:29.875Z,31.20
2018-06-27T10:59:59.515Z,29.20
2018-06-27T11:02:30.167Z,29.00
2018-06-27T11:05:00.795Z,29.70
2018-06-27T11:07:30.293Z,30.70
2018-06-27T11:09:59.659Z,30.50
2018-06-27T11:12:29.129Z,30.60
2018-06-27T11:14:58.368Z,29.40
2018-06-27T11:17:28.879Z,30.20
2018-06-27T11:19:59.540Z,30.30
2018-06-27T11:22:29.052Z,28.70
2018-06-27T11:24:58.772Z,29.10
2018-06-27T11:27:28.877Z,30.60
2018-06-27T11:29:58.731Z,31.20
2018-06-27T11:32:29.730Z,31.20
2018-06-27T11:34:59.878Z,30.60
2018-06-27T11:37:31.938Z,30.90
2018-06-27T11:46:00.285Z,28.30
2018-06-27T11:48:46.956Z,28.70
2018-06-27T11:51:42.722Z,28.50
2018-06-27T11:57:14.103Z,29.00
2018-06-27T11:59:44.699Z,28.70
2018-06-27T12:02:27.603Z,29.20
2018-06-27T12:04:59.046Z,28.40
2018-06-27T12:07:29.711Z,28.40
2018-06-27T12:13:23.021Z,28.40
2018-06-27T12:15:58.073Z,29.90
2018-06-27T12:18:37.675Z,30.20
2018-06-27T12:24:06.796Z,28.20
2018-06-27T12:29:24.240Z,28.30
2018-06-27T12:32:03.085Z,28.80
2018-06-27T12:34:46.458Z,30.00
2018-06-27T12:37:17.722Z,29.30
2018-06-27T12:39:50.032Z,27.90
2018-06-27T12:42:30.303Z,29.10
2018-06-27T12:45:02.972Z,30.80
2018-06-27T12:47:33.070Z,29.30
2018-06-27T12:50:05.142Z,28.60
2018-06-27T12:52:35.457Z,29.50
2018-06-27T12:55:08.442Z,30.30
2018-06-27T12:57:38.633Z,30.10
2018-06-27T13:00:09.572Z,30.60
2018-06-27T13:02:38.862Z,30.90
2018-06-27T13:05:10.176Z,29.90
2018-06-27T13:07:40.409Z,30.90
2018-06-27T13:10:10.713Z,30.70
2018-06-27T13:12:39.869Z,31.30
2018-06-27T13:15:09.832Z,31.20
2018-06-27T13:17:41.265Z,30.70
2018-06-27T13:21:40.957Z,29.50
2018-06-27T13:24:10.172Z,29.60
2018-06-27T13:26:39.713Z,28.80
2018-06-27T13:29:09.898Z,28.10
2018-06-27T13:31:42.794Z,27.30
2018-06-27T13:34:12.505Z,28.80
2018-06-27T13:36:42.734Z,30.10
2018-06-27T13:39:12.058Z,30.40
2018-06-27T13:41:41.506Z,29.30
2018-06-27T13:44:11.381Z,29.70
2018-06-27T13:46:40.665Z,29.90
2018-06-27T13:49:10.355Z,29.40
2018-06-27T13:51:41.891Z,28.30
2018-06-27T13:54:11.137Z,28.00
2018-06-27T13:56:40.992Z,26.70
2018-06-27T13:59:10.208Z,26.90
2018-06-27T14:01:39.399Z,27.00
2018-06-27T14:04:10.068Z,28.80
2018-06-27T14:06:39.287Z,29.00
2018-06-27T14:09:10.197Z,28.40
2018-06-27T14:11:40.308Z,28.10
2018-06-27T14:14:09.497Z,27.80
2018-06-27T14:16:39.215Z,27.70
2018-06-27T14:19:09.287Z,27.70
2018-06-27T14:31:20.097Z,28.40
2018-06-27T14:33:49.373Z,28.20
2018-06-27T14:36:25.344Z,28.10
2018-06-27T14:38:55.058Z,28.50
2018-06-27T14:41:24.577Z,29.10
2018-06-27T14:43:54.197Z,28.30
2018-06-27T14:46:23.934Z,28.40
2018-06-27T14:48:53.172Z,28.70
2018-06-27T14:51:22.673Z,28.60
2018-06-27T14:53:51.901Z,28.30
2018-06-27T14:56:21.101Z,28.30
2018-06-27T14:58:50.601Z,28.60
2018-06-27T15:01:20.154Z,27.80
2018-06-27T15:03:50.829Z,28.50
2018-06-27T15:06:20.750Z,29.70
2018-06-27T15:08:49.929Z,30.20
2018-06-27T15:11:19.773Z,28.60
2018-06-27T15:13:48.969Z,28.20
2018-06-27T15:16:18.963Z,28.30
2018-06-27T15:18:48.461Z,28.60
2018-06-27T15:21:19.169Z,28.30
2018-06-27T15:23:50.257Z,28.80
2018-06-27T15:26:22.736Z,28.80
2018-06-27T15:28:51.909Z,28.90
2018-06-27T15:31:21.194Z,28.80
2018-06-27T15:33:50.382Z,28.70
2018-06-27T15:36:21.731Z,27.90
2018-06-27T15:38:52.523Z,27.50
2018-06-27T15:41:21.923Z,26.90
2018-06-27T15:43:56.186Z,26.20
2018-06-27T15:46:26.774Z,26.30
2018-06-27T15:48:56.456Z,26.80
2018-06-27T15:51:28.669Z,26.10
2018-06-27T15:53:58.860Z,25.90
2018-06-27T15:56:28.064Z,25.80
2018-06-27T15:58:57.366Z,25.80
2018-06-27T16:01:27.385Z,25.60
2018-06-27T16:03:56.605Z,25.30
2018-06-27T16:06:26.989Z,24.80
2018-06-27T16:08:56.209Z,24.80
2018-06-27T16:11:25.385Z,24.70
2018-06-27T16:13:54.549Z,24.60
2018-06-27T16:16:25.462Z,24.60
2018-06-27T16:18:54.650Z,24.90
2018-06-27T16:21:24.749Z,25.20
2018-06-27T16:23:54.052Z,25.60
2018-06-27T16:26:23.333Z,25.60
2018-06-27T16:28:52.737Z,25.60
2018-06-27T16:31:22.825Z,25.40
2018-06-27T16:33:52.005Z,25.10
2018-06-27T16:36:21.970Z,24.70
2018-06-27T16:38:52.201Z,24.30
2018-06-27T16:41:21.901Z,24.30
2018-06-27T16:43:51.340Z,24.30
2018-06-27T16:46:20.763Z,24.50
2018-06-27T16:48:49.909Z,24.30
2018-06-27T16:51:19.555Z,24.30
2018-06-27T16:53:48.818Z,24.30
2018-06-27T16:56:17.833Z,24.30
2018-06-27T16:58:47.134Z,24.40
2018-06-27T17:01:16.552Z,24.50
2018-06-27T17:03:45.562Z,24.50
2018-06-27T17:06:14.795Z,24.60
2018-06-27T17:08:43.941Z,24.40
2018-06-27T17:11:13.049Z,24.40
2018-06-27T17:13:42.297Z,24.40
2018-06-27T17:16:13.318Z,24.30
2018-06-27T17:18:42.640Z,24.30
2018-06-27T17:21:12.353Z,24.00
2018-06-27T17:23:41.468Z,24.00
2018-06-27T17:26:10.546Z,24.00
2018-06-27T17:28:39.925Z,23.90
2018-06-27T17:31:09.692Z,23.80
2018-06-27T17:33:38.889Z,23.80
2018-06-27T17:36:09.059Z,23.80
2018-06-27T17:38:40.458Z,24.00
2018-06-27T17:41:09.991Z,24.00
2018-06-27T17:43:41.417Z,23.90
2018-06-27T17:46:10.613Z,23.90
2018-06-27T17:48:40.725Z,23.80
2018-06-27T17:51:10.234Z,23.70
2018-06-27T17:53:39.523Z,23.70
2018-06-27T17:56:10.381Z,23.70
2018-06-27T17:58:39.693Z,23.70
2018-06-27T18:01:09.085Z,23.60
2018-06-27T18:03:42.781Z,23.60
2018-06-27T18:06:12.977Z,23.70
2018-06-27T18:08:42.176Z,23.70
2018-06-27T18:11:12.836Z,23.60
2018-06-27T18:13:43.275Z,23.50
2018-06-27T18:16:13.249Z,23.60
2018-06-27T18:18:43.646Z,23.60
2018-06-27T18:21:12.845Z,23.60
2018-06-27T18:23:42.442Z,23.60
2018-06-27T18:26:11.989Z,23.50
2018-06-27T18:28:41.100Z,23.40
2018-06-27T18:31:13.372Z,23.30
2018-06-27T18:33:43.449Z,23.30
2018-06-27T18:36:12.569Z,23.20
2018-06-27T18:38:41.750Z,23.20
2018-06-27T18:41:10.881Z,23.10
2018-06-27T18:43:40.645Z,23.10
2018-06-27T18:46:09.878Z,23.00
2018-06-27T18:48:39.462Z,22.80
2018-06-27T18:51:08.685Z,22.70
2018-06-27T18:53:37.797Z,22.70
2018-06-27T18:56:10.030Z,22.60
2018-06-27T18:58:39.261Z,22.60
2018-06-27T19:01:08.454Z,22.60
2018-06-27T19:03:37.869Z,22.50
2018-06-27T19:06:07.957Z,22.40
2018-06-27T19:08:37.169Z,22.30
2018-06-27T19:11:06.393Z,22.30
2018-06-27T19:13:36.149Z,22.20
2018-06-27T19:16:05.517Z,22.20
2018-06-27T19:18:35.733Z,22.10
2018-06-27T19:21:04.941Z,22.00
2018-06-27T19:23:36.861Z,22.00
2018-06-27T19:26:06.217Z,21.90
2018-06-27T19:28:35.418Z,21.80
2018-06-27T19:31:04.604Z,21.80
2018-06-27T19:33:34.013Z,21.70
2018-06-27T19:36:03.253Z,21.70
2018-06-27T19:38:33.577Z,21.60
2018-06-27T19:41:03.139Z,21.50
2018-06-27T19:43:32.219Z,21.40
2018-06-27T19:46:01.376Z,21.10
2018-06-27T19:48:30.714Z,20.90
2018-06-27T19:50:59.890Z,20.70
2018-06-27T19:53:29.241Z,20.50
2018-06-27T19:55:59.118Z,20.30
2018-06-27T19:58:28.325Z,20.20
2018-06-27T20:00:59.033Z,20.10
2018-06-27T20:03:29.053Z,20.00
2018-06-27T20:05:58.437Z,19.80
2018-06-27T20:08:28.065Z,19.70
2018-06-27T20:10:57.161Z,19.60
2018-06-27T20:13:26.334Z,19.50
2018-06-27T20:15:55.834Z,19.40
2018-06-27T20:18:24.973Z,19.20
2018-06-27T20:20:54.162Z,19.10
2018-06-27T20:23:24.013Z,19.10
2018-06-27T20:25:53.277Z,18.90
2018-06-27T20:28:23.305Z,18.80
2018-06-27T20:30:52.428Z,18.70
2018-06-27T20:33:21.549Z,18.60
2018-06-27T20:35:50.969Z,18.50
2018-06-27T20:38:20.437Z,18.30
2018-06-27T20:40:49.890Z,18.20
2018-06-27T20:43:19.301Z,18.20
2018-06-27T20:45:48.685Z,18.10
2018-06-27T20:48:17.792Z,18.00
2018-06-27T20:50:47.422Z,17.90
2018-06-27T20:53:16.701Z,17.90
2018-06-27T20:55:46.001Z,17.80
2018-06-27T20:58:15.203Z,17.80
2018-06-27T21:00:44.403Z,17.70
2018-06-27T21:03:13.633Z,17.60
2018-06-27T21:05:42.898Z,17.60
2018-06-27T21:08:12.205Z,17.60
2018-06-27T21:10:42.148Z,17.50
2018-06-27T21:13:11.741Z,17.50
2018-06-27T21:15:41.125Z,17.40
2018-06-27T21:18:11.149Z,17.40
2018-06-27T21:20:40.545Z,17.40
2018-06-27T21:23:09.657Z,17.30
2018-06-27T21:25:38.841Z,17.20
2018-06-27T21:28:08.045Z,17.20
2018-06-27T21:30:37.750Z,17.10
2018-06-27T21:33:09.394Z,17.10
2018-06-27T21:35:38.577Z,17.00
2018-06-27T21:38:07.718Z,16.90
2018-06-27T21:40:38.424Z,16.80
2018-06-27T21:43:09.277Z,16.80
2018-06-27T21:45:38.478Z,16.70
2018-06-27T21:48:07.618Z,16.70
2018-06-27T21:50:36.813Z,16.70
2018-06-27T21:53:07.055Z,16.60
2018-06-27T21:55:36.305Z,16.60
2018-06-27T21:58:05.917Z,16.50
2018-06-27T22:00:35.125Z,16.50
2018-06-27T22:03:04.328Z,16.50
2018-06-27T22:05:33.673Z,16.40
2018-06-27T22:08:04.064Z,16.50
2018-06-27T22:10:33.197Z,16.50
2018-06-27T22:13:02.308Z,16.30
2018-06-27T22:15:31.904Z,16.20
2018-06-27T22:18:01.164Z,16.20
2018-06-27T22:20:30.365Z,16.20
2018-06-27T22:22:59.771Z,16.20
2018-06-27T22:25:29.010Z,16.20
2018-06-27T22:27:58.105Z,16.20
2018-06-27T22:30:28.149Z,16.10
2018-06-27T22:32:57.313Z,16.00
2018-06-27T22:35:26.413Z,16.10
2018-06-27T22:37:55.645Z,16.00
2018-06-27T22:40:24.808Z,15.90
2018-06-27T22:42:54.037Z,15.80
2018-06-27T22:45:23.197Z,15.70
2018-06-27T22:47:52.345Z,15.60
2018-06-27T22:50:21.453Z,15.60
2018-06-27T22:52:50.814Z,15.60
2018-06-27T22:55:20.109Z,15.60
2018-06-27T22:57:50.329Z,15.60
2018-06-27T23:00:25.198Z,15.60
2018-06-27T23:02:57.124Z,15.50
2018-06-27T23:05:26.329Z,15.50
2018-06-27T23:07:55.465Z,15.50
2018-06-27T23:10:24.865Z,15.50
2018-06-27T23:12:54.265Z,15.40
2018-06-27T23:15:26.993Z,15.40
2018-06-27T23:17:56.284Z,15.40
2018-06-27T23:20:25.439Z,15.30
2018-06-27T23:22:58.010Z,15.10
2018-06-27T23:25:27.177Z,15.00
2018-06-27T23:27:57.397Z,14.90
2018-06-27T23:30:28.689Z,14.80
2018-06-27T23:32:58.033Z,14.70
2018-06-27T23:35:27.848Z,14.60
2018-06-27T23:37:57.265Z,14.60
2018-06-27T23:40:26.389Z,14.60
2018-06-27T23:42:55.472Z,14.60
2018-06-27T23:45:25.308Z,14.60
2018-06-27T23:47:55.598Z,14.60
2018-06-27T23:50:25.662Z,14.60
2018-06-27T23:52:55.013Z,14.50
2018-06-27T23:55:24.221Z,14.40
2018-06-27T23:57:54.077Z,14.40
